createdAt,value
2023-05-04T00:00:10.138Z,1.40
2023-05-04T00:02:39.015Z,1.10
2023-05-04T00:05:06.694Z,1.30
2023-05-04T00:07:33.543Z,1.33
2023-05-04T00:10:01.270Z,1.05
2023-05-04T00:12:28.607Z,1.15
2023-05-04T00:14:55.540Z,1.13
2023-05-04T00:17:22.879Z,1.35
2023-05-04T00:19:50.306Z,1.30
2023-05-04T00:22:17.089Z,0.95
2023-05-04T00:24:46.672Z,1.13
2023-05-04T00:27:13.493Z,1.05
2023-05-04T00:29:40.425Z,1.15
2023-05-04T00:32:07.354Z,1.23
2023-05-04T00:34:34.263Z,1.20
2023-05-04T00:37:01.567Z,1.30
2023-05-04T00:39:28.550Z,1.25
2023-05-04T00:41:55.981Z,1.60
2023-05-04T00:44:24.095Z,1.30
2023-05-04T00:46:55.120Z,1.10
2023-05-04T00:49:22.603Z,1.20
2023-05-04T00:51:51.431Z,1.00
2023-05-04T00:54:19.164Z,0.77
2023-05-04T00:56:47.566Z,1.15
2023-05-04T00:59:14.829Z,1.17
2023-05-04T01:01:42.234Z,1.55
2023-05-04T01:04:09.955Z,0.95
2023-05-04T01:06:58.314Z,1.00
2023-05-04T01:09:45.034Z,1.10
2023-05-04T01:12:26.013Z,1.25
2023-05-04T01:14:54.645Z,1.38
2023-05-04T01:17:22.250Z,1.10
2023-05-04T01:19:51.176Z,1.60
2023-05-04T01:22:17.950Z,1.30
2023-05-04T01:24:45.220Z,1.70
2023-05-04T01:27:27.405Z,1.80
2023-05-04T01:30:37.349Z,1.70
2023-05-04T01:33:04.738Z,1.02
2023-05-04T01:35:31.808Z,1.45
2023-05-04T01:37:59.744Z,1.00
2023-05-04T01:40:26.783Z,1.25
2023-05-04T01:42:55.102Z,1.48
2023-05-04T01:45:22.445Z,1.40
2023-05-04T01:47:49.995Z,1.10
2023-05-04T01:50:16.906Z,1.30
2023-05-04T01:52:43.698Z,1.40
2023-05-04T01:55:11.215Z,0.98
2023-05-04T01:57:38.060Z,1.33
2023-05-04T02:00:05.403Z,1.38
2023-05-04T02:02:42.707Z,1.35
2023-05-04T02:05:10.529Z,1.05
2023-05-04T02:07:37.827Z,1.10
2023-05-04T02:10:05.385Z,1.40
2023-05-04T02:12:32.430Z,1.35
2023-05-04T02:14:59.227Z,1.55
2023-05-04T02:17:26.106Z,1.58
2023-05-04T02:19:53.335Z,1.58
2023-05-04T02:22:20.560Z,1.30
2023-05-04T02:24:47.347Z,1.70
2023-05-04T02:27:14.121Z,1.27
2023-05-04T02:29:41.254Z,1.60
2023-05-04T02:32:08.035Z,1.33
2023-05-04T02:34:35.462Z,1.55
2023-05-04T02:37:03.306Z,1.50
2023-05-04T02:39:32.030Z,1.88
2023-05-04T02:41:59.218Z,1.33
2023-05-04T02:44:26.456Z,1.70
2023-05-04T02:46:53.202Z,1.58
2023-05-04T02:49:20.052Z,1.90
2023-05-04T02:51:47.410Z,1.60
2023-05-04T02:54:14.650Z,1.40
2023-05-04T02:56:41.598Z,1.98
2023-05-04T02:59:08.819Z,1.50
2023-05-04T03:01:35.712Z,1.70
2023-05-04T03:04:03.404Z,1.52
2023-05-04T03:06:30.728Z,1.88
2023-05-04T03:08:57.955Z,1.75
2023-05-04T03:11:25.371Z,1.50
2023-05-04T03:13:52.559Z,1.77
2023-05-04T03:16:20.205Z,1.70
2023-05-04T03:18:47.806Z,1.90
2023-05-04T03:21:14.682Z,1.55
2023-05-04T03:23:43.782Z,1.60
2023-05-04T03:26:11.382Z,1.60
2023-05-04T03:28:38.785Z,1.67
2023-05-04T03:31:06.285Z,1.52
2023-05-04T03:33:33.836Z,1.52
2023-05-04T03:36:01.117Z,1.70
2023-05-04T03:38:28.941Z,1.55
2023-05-04T03:40:56.419Z,1.77
2023-05-04T03:43:23.581Z,1.65
2023-05-04T03:45:50.538Z,2.03
2023-05-04T03:48:17.603Z,1.50
2023-05-04T03:50:44.802Z,2.10
2023-05-04T03:53:11.657Z,1.70
2023-05-04T03:55:39.468Z,1.67
2023-05-04T03:58:06.860Z,1.75
2023-05-04T04:00:34.169Z,1.73
2023-05-04T04:03:10.061Z,2.00
2023-05-04T04:05:38.359Z,1.73
2023-05-04T04:08:05.600Z,2.05
2023-05-04T04:10:32.458Z,2.20
2023-05-04T04:12:59.739Z,1.83
2023-05-04T04:15:27.074Z,1.80
2023-05-04T04:17:54.335Z,1.50
2023-05-04T04:20:21.263Z,1.90
2023-05-04T04:22:48.569Z,2.22
2023-05-04T04:25:15.331Z,2.10
2023-05-04T04:27:42.534Z,2.00
2023-05-04T04:30:09.868Z,1.80
2023-05-04T04:32:37.559Z,1.83
2023-05-04T04:35:05.266Z,1.90
2023-05-04T04:37:32.487Z,1.63
2023-05-04T04:39:59.750Z,2.03
2023-05-04T04:42:27.094Z,1.70
2023-05-04T04:44:54.489Z,1.88
2023-05-04T04:47:21.472Z,1.40
2023-05-04T04:49:48.836Z,1.67
2023-05-04T04:52:17.245Z,1.80
2023-05-04T04:54:45.375Z,1.50
2023-05-04T04:57:12.568Z,1.80
2023-05-04T04:59:39.885Z,2.03
2023-05-04T05:02:06.993Z,2.35
2023-05-04T05:04:34.391Z,1.90
2023-05-04T05:07:02.061Z,1.48
2023-05-04T05:09:29.366Z,1.58
2023-05-04T05:11:56.538Z,1.80
2023-05-04T05:14:23.359Z,1.90
2023-05-04T05:16:50.583Z,1.50
2023-05-04T05:19:17.519Z,1.63
2023-05-04T05:21:44.762Z,1.85
2023-05-04T05:24:12.006Z,1.50
2023-05-04T05:26:39.196Z,1.80
2023-05-04T05:29:06.559Z,1.85
2023-05-04T05:31:33.949Z,1.52
2023-05-04T05:34:01.449Z,1.58
2023-05-04T05:36:28.742Z,1.88
2023-05-04T05:38:55.754Z,1.70
2023-05-04T05:41:23.422Z,1.73
2023-05-04T05:43:50.285Z,1.67
2023-05-04T05:46:18.612Z,1.75
2023-05-04T05:48:45.512Z,1.95
2023-05-04T05:51:12.727Z,2.13
2023-05-04T05:53:40.018Z,1.80
2023-05-04T05:56:07.465Z,1.83
2023-05-04T05:58:34.667Z,1.80
2023-05-04T06:01:02.049Z,1.92
2023-05-04T06:03:29.434Z,2.17
2023-05-04T06:05:56.564Z,2.03
2023-05-04T06:08:23.864Z,2.10
2023-05-04T06:10:51.628Z,2.20
2023-05-04T06:13:19.067Z,1.80
2023-05-04T06:15:55.697Z,1.98
2023-05-04T06:18:22.795Z,2.08
2023-05-04T06:20:50.038Z,2.05
2023-05-04T06:23:17.329Z,2.20
2023-05-04T06:26:07.827Z,1.92
2023-05-04T06:32:41.929Z,1.58
2023-05-04T06:35:09.952Z,2.20
2023-05-04T06:37:36.791Z,2.38
2023-05-04T06:40:05.307Z,2.13
2023-05-04T06:42:32.616Z,1.90
2023-05-04T06:44:59.918Z,2.30
2023-05-04T06:47:27.295Z,2.08
2023-05-04T06:49:54.545Z,2.35
2023-05-04T06:52:21.947Z,2.10
2023-05-04T06:54:49.267Z,2.00
2023-05-04T06:57:16.503Z,2.30
2023-05-04T06:59:43.357Z,1.92
2023-05-04T07:02:10.601Z,2.40
2023-05-04T07:04:37.854Z,2.40
2023-05-04T07:07:05.081Z,2.00
2023-05-04T07:09:31.952Z,1.90
2023-05-04T07:11:59.183Z,2.00
2023-05-04T07:14:25.959Z,2.25
2023-05-04T07:16:53.344Z,1.90
2023-05-04T07:19:20.148Z,2.20
2023-05-04T07:21:47.613Z,2.10
2023-05-04T07:24:14.496Z,2.00
2023-05-04T07:26:41.688Z,2.03
2023-05-04T07:29:09.676Z,2.40
2023-05-04T07:31:38.369Z,2.45
2023-05-04T07:34:05.382Z,2.25
2023-05-04T07:36:35.290Z,2.25
2023-05-04T07:39:02.640Z,2.15
2023-05-04T07:41:29.467Z,2.45
2023-05-04T07:43:56.670Z,2.28
2023-05-04T07:46:23.968Z,2.15
2023-05-04T07:48:51.036Z,2.78
2023-05-04T07:51:18.627Z,2.35
2023-05-04T07:53:45.691Z,2.63
2023-05-04T07:56:13.396Z,2.30
2023-05-04T07:58:40.629Z,2.92
2023-05-04T08:01:07.573Z,2.50
2023-05-04T08:03:34.863Z,2.25
2023-05-04T08:06:02.022Z,2.65
2023-05-04T08:08:28.953Z,3.05
2023-05-04T08:11:02.022Z,2.42
2023-05-04T08:13:35.628Z,2.60
2023-05-04T08:16:02.853Z,2.63
2023-05-04T08:18:29.650Z,2.58
2023-05-04T08:20:56.621Z,2.20
2023-05-04T08:23:23.422Z,2.33
2023-05-04T08:25:50.437Z,2.60
2023-05-04T08:28:17.505Z,2.75
2023-05-04T08:30:44.432Z,2.60
2023-05-04T08:33:11.381Z,2.35
2023-05-04T08:35:38.336Z,2.20
2023-05-04T08:38:05.426Z,2.83
2023-05-04T08:40:33.689Z,2.83
2023-05-04T08:43:00.590Z,2.75
2023-05-04T08:45:28.545Z,2.83
2023-05-04T08:47:55.945Z,2.15
2023-05-04T08:50:22.890Z,2.30
2023-05-04T08:52:50.328Z,2.67
2023-05-04T08:59:10.229Z,1.70
2023-05-04T09:05:51.049Z,2.10
2023-05-04T09:08:20.482Z,2.90
2023-05-04T09:10:47.355Z,2.05
2023-05-04T09:13:14.750Z,2.72
2023-05-04T09:15:42.356Z,2.00
2023-05-04T09:18:10.169Z,2.90
2023-05-04T09:20:47.947Z,2.67
2023-05-04T09:23:16.235Z,2.38
2023-05-04T09:25:50.789Z,2.70
2023-05-04T09:28:18.758Z,2.10
2023-05-04T09:30:48.126Z,2.50
2023-05-04T09:33:27.336Z,2.60
2023-05-04T09:35:54.434Z,2.30
2023-05-04T09:38:32.670Z,2.13
2023-05-04T09:40:59.491Z,2.28
2023-05-04T09:43:36.891Z,2.20
2023-05-04T09:46:03.814Z,2.33
2023-05-04T09:48:30.886Z,2.33
2023-05-04T09:51:03.356Z,2.10
2023-05-04T09:53:31.720Z,2.22
2023-05-04T09:56:28.609Z,2.08
2023-05-04T09:58:59.768Z,2.17
2023-05-04T10:01:30.205Z,2.30
2023-05-04T10:03:57.560Z,2.30
2023-05-04T10:06:24.858Z,2.47
2023-05-04T10:08:52.208Z,2.00
2023-05-04T10:11:20.600Z,2.30
2023-05-04T10:13:49.514Z,2.53
2023-05-04T10:16:23.685Z,2.30
2023-05-04T10:19:18.000Z,2.17
2023-05-04T10:21:53.975Z,2.35
2023-05-04T10:28:09.853Z,1.83
2023-05-04T10:30:36.985Z,2.00
2023-05-04T10:33:04.471Z,2.00
2023-05-04T10:35:32.364Z,1.83
2023-05-04T10:37:59.354Z,1.63
2023-05-04T10:40:36.521Z,2.05
2023-05-04T10:43:03.824Z,1.83
2023-05-04T10:45:37.214Z,1.77
2023-05-04T10:48:05.148Z,2.30
2023-05-04T10:50:49.257Z,2.25
2023-05-04T10:53:17.886Z,1.80
2023-05-04T10:55:48.521Z,1.90
2023-05-04T10:58:21.707Z,1.73
2023-05-04T11:00:51.690Z,1.80
2023-05-04T11:03:19.280Z,1.70
2023-05-04T11:05:50.727Z,1.65
2023-05-04T11:08:22.572Z,1.80
2023-05-04T11:11:03.519Z,1.60
2023-05-04T11:13:33.763Z,1.20
2023-05-04T11:16:00.917Z,1.40
2023-05-04T11:18:35.621Z,1.35
2023-05-04T11:21:03.270Z,1.85
2023-05-04T11:23:30.410Z,1.50
2023-05-04T11:25:57.261Z,1.45
2023-05-04T11:28:37.323Z,1.55
2023-05-04T11:31:13.962Z,1.50
2023-05-04T11:33:54.919Z,1.88
2023-05-04T11:36:22.823Z,1.42
2023-05-04T11:38:50.197Z,1.42
2023-05-04T11:41:17.143Z,1.35
2023-05-04T11:43:45.620Z,1.58
2023-05-04T11:46:14.015Z,1.63
2023-05-04T11:48:41.249Z,1.60
2023-05-04T11:51:08.090Z,1.58
2023-05-04T11:53:38.941Z,1.83
2023-05-04T11:56:08.791Z,1.30
2023-05-04T11:58:36.083Z,1.58
2023-05-04T12:01:04.175Z,1.40
2023-05-04T12:03:48.597Z,1.10
2023-05-04T12:06:18.685Z,1.10
2023-05-04T12:08:45.643Z,1.20
2023-05-04T12:11:25.273Z,1.15
2023-05-04T12:14:10.145Z,1.08
2023-05-04T12:16:38.282Z,1.10
2023-05-04T12:19:08.769Z,0.95
2023-05-04T12:21:36.203Z,0.80
2023-05-04T12:24:03.955Z,1.08
2023-05-04T12:26:31.245Z,0.90
2023-05-04T12:28:58.039Z,0.90
2023-05-04T12:31:25.510Z,1.10
2023-05-04T12:33:52.679Z,0.98
2023-05-04T12:36:19.583Z,0.88
2023-05-04T12:38:46.606Z,0.90
2023-05-04T12:41:13.775Z,0.93
2023-05-04T12:43:40.827Z,0.90
2023-05-04T12:46:07.879Z,0.77
2023-05-04T12:48:34.954Z,1.00
2023-05-04T12:51:04.224Z,1.10
2023-05-04T12:53:32.193Z,0.80
2023-05-04T12:56:00.494Z,0.70
2023-05-04T12:58:27.931Z,0.82
2023-05-04T13:00:55.550Z,0.85
2023-05-04T13:03:22.541Z,0.80
2023-05-04T13:05:49.949Z,0.82
2023-05-04T13:08:18.343Z,0.90
2023-05-04T13:10:46.309Z,1.10
2023-05-04T13:13:15.452Z,0.88
2023-05-04T13:15:42.881Z,0.93
2023-05-04T13:18:09.803Z,0.80
2023-05-04T13:20:36.564Z,0.90
2023-05-04T13:23:03.384Z,0.77
2023-05-04T13:25:30.181Z,0.95
2023-05-04T13:27:58.788Z,0.60
2023-05-04T13:30:25.832Z,0.70
2023-05-04T13:32:52.988Z,0.70
2023-05-04T13:35:20.049Z,0.80
2023-05-04T13:37:47.013Z,0.80
2023-05-04T13:40:14.657Z,0.80
2023-05-04T13:42:44.023Z,0.73
2023-05-04T13:45:11.233Z,0.60
2023-05-04T13:47:38.220Z,0.63
2023-05-04T13:50:05.824Z,0.90
2023-05-04T13:52:33.068Z,0.82
2023-05-04T13:55:00.358Z,0.70
2023-05-04T13:57:27.897Z,0.70
2023-05-04T14:00:06.290Z,0.88
2023-05-04T14:02:40.064Z,0.88
2023-05-04T14:05:07.979Z,0.80
2023-05-04T14:07:35.341Z,0.70
2023-05-04T14:10:02.503Z,0.80
2023-05-04T14:12:29.477Z,0.60
2023-05-04T14:14:58.216Z,1.00
2023-05-04T14:17:26.051Z,0.60
2023-05-04T14:19:53.335Z,0.75
2023-05-04T14:22:20.487Z,0.70
2023-05-04T14:24:47.340Z,0.98
2023-05-04T14:27:14.241Z,0.70
2023-05-04T14:29:41.154Z,0.47
2023-05-04T14:32:08.121Z,0.65
2023-05-04T14:34:36.109Z,0.82
2023-05-04T14:37:02.919Z,0.70
2023-05-04T14:39:29.778Z,0.63
2023-05-04T14:41:57.979Z,0.60
2023-05-04T14:44:26.073Z,0.60
2023-05-04T14:46:53.410Z,0.70
2023-05-04T14:49:34.869Z,0.80
2023-05-04T14:52:04.039Z,0.70
2023-05-04T14:54:30.886Z,0.60
2023-05-04T14:56:59.088Z,0.85
2023-05-04T14:59:26.273Z,0.68
2023-05-04T15:01:54.769Z,0.90
2023-05-04T15:04:21.991Z,0.75
2023-05-04T15:06:49.535Z,0.80
2023-05-04T15:09:16.557Z,0.60
2023-05-04T15:11:43.436Z,0.68
2023-05-04T15:14:10.322Z,0.68
2023-05-04T15:16:37.201Z,0.77
2023-05-04T15:19:04.188Z,0.60
2023-05-04T15:21:31.634Z,0.65
2023-05-04T15:23:58.676Z,0.80
2023-05-04T15:26:25.871Z,1.10
2023-05-04T15:28:54.086Z,1.60
2023-05-04T15:31:21.671Z,1.33
2023-05-04T15:33:48.929Z,1.10
2023-05-04T15:36:15.706Z,0.80
2023-05-04T15:38:43.718Z,0.82
2023-05-04T15:41:10.816Z,0.70
2023-05-04T15:43:37.762Z,0.77
2023-05-04T15:46:04.697Z,0.70
2023-05-04T15:48:31.578Z,0.88
2023-05-04T15:50:58.364Z,1.05
2023-05-04T15:53:25.248Z,0.80
2023-05-04T15:55:52.368Z,0.60
2023-05-04T15:58:19.217Z,0.70
2023-05-04T16:00:46.124Z,1.50
2023-05-04T16:03:13.058Z,4.80
2023-05-04T16:05:40.153Z,2.33
2023-05-04T16:08:06.964Z,1.92
2023-05-04T16:10:34.336Z,1.08
2023-05-04T16:13:04.172Z,1.02
2023-05-04T16:15:31.384Z,0.63
2023-05-04T16:17:58.512Z,0.60
2023-05-04T16:20:26.902Z,0.80
2023-05-04T16:22:53.933Z,0.80
2023-05-04T16:25:20.829Z,0.70
2023-05-04T16:27:47.846Z,0.60
2023-05-04T16:30:15.643Z,0.57
2023-05-04T16:32:42.561Z,0.60
2023-05-04T16:35:09.800Z,0.65
2023-05-04T16:37:37.910Z,0.60
2023-05-04T16:40:15.469Z,0.68
2023-05-04T16:42:42.924Z,0.70
2023-05-04T16:45:13.749Z,0.80
2023-05-04T16:47:44.420Z,0.70
2023-05-04T16:50:12.976Z,0.60
2023-05-04T16:52:40.000Z,1.00
2023-05-04T16:55:10.606Z,0.88
2023-05-04T16:57:38.361Z,0.65
2023-05-04T17:00:06.844Z,0.65
2023-05-04T17:02:34.243Z,0.90
2023-05-04T17:05:01.396Z,0.73
2023-05-04T17:07:28.655Z,0.80
2023-05-04T17:09:55.515Z,0.60
2023-05-04T17:12:23.411Z,0.55
2023-05-04T17:14:50.376Z,0.73
2023-05-04T17:17:17.183Z,0.60
2023-05-04T17:19:43.993Z,0.52
2023-05-04T17:22:11.388Z,0.60
2023-05-04T17:24:38.172Z,0.50
2023-05-04T17:27:06.048Z,0.88
2023-05-04T17:29:32.866Z,0.80
2023-05-04T17:31:59.695Z,0.75
2023-05-04T17:34:26.592Z,0.70
2023-05-04T17:36:54.287Z,0.70
2023-05-04T17:39:21.118Z,0.88
2023-05-04T17:41:48.920Z,0.93
2023-05-04T17:44:16.555Z,0.70
2023-05-04T17:46:43.895Z,0.65
2023-05-04T17:49:11.024Z,0.90
2023-05-04T17:51:39.506Z,0.73
2023-05-04T17:54:06.469Z,0.77
2023-05-04T17:56:33.423Z,0.70
2023-05-04T17:59:00.400Z,0.80
2023-05-04T18:01:27.454Z,0.80
2023-05-04T18:03:54.514Z,0.73
2023-05-04T18:06:21.441Z,0.90
2023-05-04T18:08:48.289Z,0.50
2023-05-04T18:11:15.212Z,0.75
2023-05-04T18:13:42.007Z,0.73
2023-05-04T18:16:08.981Z,0.60
2023-05-04T18:18:35.991Z,0.70
2023-05-04T18:21:03.000Z,0.52
2023-05-04T18:23:30.130Z,0.70
2023-05-04T18:25:57.008Z,0.90
2023-05-04T18:28:23.849Z,0.68
2023-05-04T18:30:50.821Z,0.90
2023-05-04T18:33:17.689Z,0.65
2023-05-04T18:35:44.460Z,0.98
2023-05-04T18:38:11.327Z,1.55
2023-05-04T18:40:38.137Z,1.35
2023-05-04T18:43:05.192Z,1.73
2023-05-04T18:45:32.133Z,5.38
2023-05-04T18:47:59.107Z,6.57
2023-05-04T18:50:26.022Z,3.25
2023-05-04T18:52:54.107Z,2.42
2023-05-04T18:55:21.196Z,1.50
2023-05-04T18:57:48.039Z,1.42
2023-05-04T19:00:15.224Z,1.05
2023-05-04T19:02:42.015Z,0.95
2023-05-04T19:05:10.435Z,0.90
2023-05-04T19:07:38.536Z,1.23
2023-05-04T19:10:06.667Z,1.38
2023-05-04T19:12:33.641Z,1.63
2023-05-04T19:15:00.508Z,2.78
2023-05-04T19:17:27.352Z,4.05
2023-05-04T19:19:54.187Z,2.40
2023-05-04T19:22:21.007Z,1.77
2023-05-04T19:24:51.460Z,1.50
2023-05-04T19:27:18.302Z,1.50
2023-05-04T19:29:45.119Z,1.15
2023-05-04T19:32:22.766Z,1.23
2023-05-04T19:34:51.831Z,1.20
2023-05-04T19:37:19.008Z,1.20
2023-05-04T19:39:46.136Z,1.20
2023-05-04T19:42:12.931Z,1.08
2023-05-04T19:44:39.690Z,1.15
2023-05-04T19:47:06.832Z,1.60
2023-05-04T19:49:33.705Z,1.23
2023-05-04T19:52:00.833Z,1.10
2023-05-04T19:54:27.607Z,1.13
2023-05-04T19:56:54.445Z,1.88
2023-05-04T19:59:21.225Z,1.60
2023-05-04T20:01:48.105Z,1.67
2023-05-04T20:04:16.065Z,1.45
2023-05-04T20:06:43.144Z,1.20
2023-05-04T20:09:10.474Z,1.20
2023-05-04T20:11:38.286Z,0.98
2023-05-04T20:14:05.300Z,1.05
2023-05-04T20:16:32.288Z,0.90
2023-05-04T20:19:00.647Z,1.00
2023-05-04T20:21:29.886Z,1.10
2023-05-04T20:23:56.789Z,1.50
2023-05-04T20:26:23.570Z,1.20
2023-05-04T20:28:50.478Z,1.02
2023-05-04T20:31:17.646Z,1.65
2023-05-04T20:33:44.449Z,0.95
2023-05-04T20:36:12.531Z,1.17
2023-05-04T20:38:39.445Z,1.33
2023-05-04T20:41:09.780Z,1.40
2023-05-04T20:43:36.629Z,1.30
2023-05-04T20:46:04.413Z,1.58
2023-05-04T20:48:31.812Z,1.50
2023-05-04T20:51:10.473Z,1.25
2023-05-04T20:53:41.143Z,1.60
2023-05-04T20:56:08.061Z,1.10
2023-05-04T20:58:34.901Z,1.40
2023-05-04T21:01:05.752Z,1.38
2023-05-04T21:03:33.269Z,1.17
2023-05-04T21:06:01.872Z,1.27
2023-05-04T21:08:29.151Z,1.20
2023-05-04T21:10:55.979Z,1.05
2023-05-04T21:13:22.854Z,1.30
2023-05-04T21:15:49.684Z,1.63
2023-05-04T21:18:18.430Z,1.33
2023-05-04T21:20:45.649Z,1.35
2023-05-04T21:23:12.524Z,1.63
2023-05-04T21:25:39.328Z,2.28
2023-05-04T21:28:06.369Z,1.90
2023-05-04T21:30:33.166Z,3.15
2023-05-04T21:33:00.755Z,1.90
2023-05-04T21:35:31.376Z,1.80
2023-05-04T21:37:59.318Z,1.20
2023-05-04T21:40:27.550Z,1.27
2023-05-04T21:42:54.404Z,1.40
2023-05-04T21:45:21.331Z,1.48
2023-05-04T21:47:48.543Z,1.05
2023-05-04T21:50:16.227Z,1.08
2023-05-04T21:52:43.052Z,1.40
2023-05-04T21:55:10.137Z,1.08
2023-05-04T21:57:37.209Z,1.13
2023-05-04T22:00:11.935Z,1.48
2023-05-04T22:02:39.356Z,1.08
2023-05-04T22:05:06.507Z,1.30
2023-05-04T22:07:35.317Z,1.10
2023-05-04T22:10:04.613Z,0.90
2023-05-04T22:12:31.528Z,1.00
2023-05-04T22:14:58.382Z,1.23
2023-05-04T22:17:25.236Z,1.15
2023-05-04T22:19:52.127Z,1.30
2023-05-04T22:22:18.921Z,1.13
2023-05-04T22:24:45.706Z,1.25
2023-05-04T22:27:12.488Z,1.27
2023-05-04T22:29:39.395Z,1.33
2023-05-04T22:32:06.195Z,1.45
2023-05-04T22:34:33.112Z,1.38
2023-05-04T22:36:59.883Z,1.60
2023-05-04T22:39:26.823Z,1.17
2023-05-04T22:41:53.664Z,1.60
2023-05-04T22:44:20.551Z,1.40
2023-05-04T22:46:49.331Z,1.45
2023-05-04T22:49:17.645Z,1.67
2023-05-04T22:51:44.457Z,1.33
2023-05-04T22:54:11.253Z,1.42
2023-05-04T22:56:38.084Z,1.40
2023-05-04T22:59:06.282Z,1.25
2023-05-04T23:01:33.187Z,1.30
2023-05-04T23:03:59.963Z,1.48
2023-05-04T23:06:28.432Z,1.25
2023-05-04T23:08:55.252Z,1.50
2023-05-04T23:11:22.137Z,1.60
2023-05-04T23:13:49.282Z,1.80
2023-05-04T23:16:16.262Z,1.40
2023-05-04T23:18:43.138Z,1.65
2023-05-04T23:21:09.978Z,1.33
2023-05-04T23:23:37.102Z,1.42
2023-05-04T23:26:04.028Z,1.42
2023-05-04T23:28:30.885Z,1.33
2023-05-04T23:30:57.675Z,1.83
2023-05-04T23:33:24.903Z,1.58
2023-05-04T23:35:55.652Z,1.50
2023-05-04T23:38:22.904Z,1.30
2023-05-04T23:40:50.082Z,1.55
2023-05-04T23:43:17.009Z,1.35
2023-05-04T23:45:43.921Z,1.15
2023-05-04T23:48:10.967Z,1.65
2023-05-04T23:50:37.741Z,1.70
2023-05-04T23:53:04.603Z,1.30
2023-05-04T23:55:31.436Z,1.08
2023-05-04T23:57:58.499Z,1.00
